createdAt,value
2022-10-06T00:05:00.012Z,83.62
2022-10-06T00:10:01.540Z,83.88
2022-10-06T00:15:03.089Z,83.80
2022-10-06T00:20:05.144Z,83.23
2022-10-06T00:25:07.942Z,83.48
2022-10-06T00:30:12.368Z,83.53
2022-10-06T00:35:13.945Z,82.57
2022-10-06T00:40:15.796Z,82.84
2022-10-06T00:45:19.027Z,82.50
2022-10-06T00:50:20.715Z,82.29
2022-10-06T00:55:22.501Z,82.20
2022-10-06T01:00:24.042Z,81.83
2022-10-06T01:05:34.627Z,82.10
2022-10-06T01:10:36.205Z,81.88
2022-10-06T01:15:41.554Z,81.80
2022-10-06T01:20:48.273Z,81.74
2022-10-06T01:25:50.266Z,81.53
2022-10-06T01:30:54.367Z,81.55
2022-10-06T01:35:58.339Z,81.52
2022-10-06T01:40:59.886Z,82.03
2022-10-06T01:46:01.524Z,82.93
2022-10-06T01:51:03.486Z,82.52
2022-10-06T01:56:05.326Z,83.12
2022-10-06T02:01:08.029Z,83.28
2022-10-06T02:06:10.895Z,84.24
2022-10-06T02:11:13.264Z,84.07
2022-10-06T02:16:18.941Z,84.23
2022-10-06T02:21:22.960Z,84.35
2022-10-06T02:26:24.613Z,84.78
2022-10-06T02:31:26.667Z,84.86
2022-10-06T02:36:28.516Z,85.26
2022-10-06T02:41:31.131Z,85.60
2022-10-06T02:46:32.884Z,85.11
2022-10-06T02:51:35.470Z,85.80
2022-10-06T02:56:37.960Z,84.88
2022-10-06T03:01:39.598Z,85.12
2022-10-06T03:06:46.137Z,85.91
2022-10-06T03:11:58.591Z,85.78
2022-10-06T03:17:09.944Z,86.18
2022-10-06T03:22:15.465Z,85.57
2022-10-06T03:27:23.790Z,85.82
2022-10-06T03:32:28.926Z,86.00
2022-10-06T03:37:30.632Z,85.46
2022-10-06T03:42:32.250Z,85.07
2022-10-06T03:47:33.827Z,85.04
2022-10-06T03:52:36.020Z,85.48
2022-10-06T03:57:37.655Z,84.85
2022-10-06T04:02:40.590Z,85.76
2022-10-06T04:07:42.201Z,85.63
2022-10-06T04:12:43.909Z,85.66
2022-10-06T04:17:45.579Z,86.04
2022-10-06T04:22:47.205Z,86.30
2022-10-06T04:27:48.855Z,86.08
2022-10-06T04:32:51.139Z,86.58
2022-10-06T04:37:52.921Z,86.07
2022-10-06T04:42:54.606Z,86.34
2022-10-06T04:47:56.305Z,88.13
2022-10-06T04:52:57.874Z,88.02
2022-10-06T04:57:59.600Z,87.64
2022-10-06T05:03:01.559Z,88.14
2022-10-06T05:08:03.536Z,87.62
2022-10-06T05:13:06.154Z,87.35
2022-10-06T05:18:08.155Z,87.53
2022-10-06T05:23:09.849Z,87.44
2022-10-06T05:28:11.590Z,86.86
2022-10-06T05:33:13.187Z,85.98
2022-10-06T05:38:15.154Z,86.37
2022-10-06T05:43:17.859Z,85.82
2022-10-06T05:48:20.168Z,85.62
2022-10-06T05:53:21.843Z,85.40
2022-10-06T05:58:23.655Z,85.41
2022-10-06T06:03:25.300Z,85.11
2022-10-06T06:08:27.495Z,85.28
2022-10-06T06:13:30.922Z,85.13
2022-10-06T06:18:40.324Z,85.81
2022-10-06T06:23:46.400Z,86.88
2022-10-06T06:28:53.731Z,84.62
2022-10-06T06:33:57.390Z,76.30
2022-10-06T06:39:04.251Z,77.49
2022-10-06T06:44:16.640Z,78.38
2022-10-06T06:49:25.572Z,80.01
2022-10-06T06:54:31.902Z,81.48
2022-10-06T06:59:38.976Z,83.66
2022-10-06T07:04:43.800Z,84.22
2022-10-06T07:09:48.186Z,84.24
2022-10-06T07:15:10.031Z,85.50
2022-10-06T07:20:33.876Z,86.93
2022-10-06T07:25:35.477Z,85.68
2022-10-06T07:30:41.708Z,86.09
2022-10-06T07:35:53.448Z,87.01
2022-10-06T07:41:17.896Z,88.96
2022-10-06T07:46:19.801Z,88.46
2022-10-06T07:51:34.274Z,89.24
2022-10-06T07:56:37.186Z,89.59
2022-10-06T08:01:39.420Z,89.48
2022-10-06T08:06:41.996Z,89.30
2022-10-06T08:11:45.029Z,87.84
2022-10-06T08:16:46.672Z,88.21
2022-10-06T08:21:48.186Z,87.44
2022-10-06T08:26:49.675Z,87.16
2022-10-06T08:31:51.285Z,88.40
2022-10-06T08:37:18.727Z,87.23
2022-10-06T08:42:21.523Z,87.38
2022-10-06T08:47:23.879Z,88.32
2022-10-06T08:52:46.836Z,87.18
2022-10-06T08:58:17.743Z,88.61
2022-10-06T09:03:24.081Z,87.76
2022-10-06T09:08:52.458Z,88.24
2022-10-06T09:13:59.769Z,88.09
2022-10-06T09:19:09.464Z,86.39
2022-10-06T09:24:14.748Z,86.81
2022-10-06T09:29:16.836Z,83.27
2022-10-06T09:34:39.414Z,81.98
2022-10-06T09:39:48.046Z,79.99
2022-10-06T09:45:01.668Z,79.11
2022-10-06T09:50:16.169Z,79.58
2022-10-06T09:55:19.164Z,80.08
2022-10-06T10:00:27.041Z,77.55
2022-10-06T10:05:39.955Z,77.51
2022-10-06T10:10:41.466Z,76.45
2022-10-06T10:15:53.567Z,73.80
2022-10-06T10:20:59.513Z,73.27
2022-10-06T10:26:10.371Z,72.34
2022-10-06T10:31:33.514Z,70.65
2022-10-06T10:36:39.484Z,69.50
2022-10-06T10:41:50.696Z,70.88
2022-10-06T10:46:55.120Z,68.97
2022-10-06T10:52:11.465Z,70.05
2022-10-06T10:57:16.465Z,68.43
2022-10-06T11:02:22.310Z,66.60
2022-10-06T11:07:50.053Z,68.75
2022-10-06T11:13:04.863Z,66.70
2022-10-06T11:18:44.106Z,66.60
2022-10-06T11:24:05.433Z,68.05
2022-10-06T11:29:30.238Z,68.85
2022-10-06T11:34:31.794Z,66.41
2022-10-06T11:39:48.210Z,66.39
2022-10-06T11:44:54.538Z,67.83
2022-10-06T11:49:56.194Z,67.20
2022-10-06T11:55:08.653Z,64.95
2022-10-06T12:00:16.127Z,65.39
2022-10-06T12:05:54.865Z,64.16
2022-10-06T12:10:50.117Z,63.25
2022-10-06T12:21:45.540Z,61.99
2022-10-06T12:26:51.884Z,63.28
2022-10-06T12:32:08.533Z,62.82
2022-10-06T12:37:21.947Z,60.72
2022-10-06T12:42:27.753Z,61.75
2022-10-06T12:47:34.437Z,60.42
2022-10-06T12:52:48.149Z,61.40
2022-10-06T12:57:54.178Z,61.76
2022-10-06T13:02:57.602Z,60.21
2022-10-06T13:08:07.585Z,61.01
2022-10-06T13:13:23.364Z,59.31
2022-10-06T13:18:25.167Z,60.74
2022-10-06T13:23:31.176Z,61.82
2022-10-06T13:28:35.631Z,60.14
2022-10-06T13:33:39.604Z,60.32
2022-10-06T13:38:42.222Z,59.21
2022-10-06T13:43:55.900Z,59.21
2022-10-06T13:49:00.838Z,60.83
2022-10-06T13:54:18.283Z,58.84
2022-10-06T13:59:39.857Z,58.76
2022-10-06T14:04:41.551Z,59.56
2022-10-06T14:09:43.291Z,59.11
2022-10-06T14:14:49.561Z,56.27
2022-10-06T14:19:51.397Z,57.74
2022-10-06T14:24:52.884Z,59.05
2022-10-06T14:29:56.221Z,56.82
2022-10-06T14:34:57.948Z,58.28
2022-10-06T14:39:59.700Z,56.15
2022-10-06T14:45:02.773Z,56.98
2022-10-06T14:50:05.493Z,58.59
2022-10-06T14:55:08.197Z,57.63
2022-10-06T15:00:10.411Z,56.89
2022-10-06T15:05:11.946Z,56.99
2022-10-06T15:10:13.449Z,58.42
2022-10-06T15:15:16.605Z,59.96
2022-10-06T15:20:18.155Z,60.34
2022-10-06T15:25:38.204Z,60.29
2022-10-06T15:30:41.002Z,59.74
2022-10-06T15:35:49.500Z,60.29
2022-10-06T15:41:02.180Z,60.90
2022-10-06T15:46:03.711Z,61.34
2022-10-06T15:51:05.308Z,59.43
2022-10-06T15:56:06.824Z,60.14
2022-10-06T16:01:11.549Z,59.93
2022-10-06T16:06:16.872Z,60.29
2022-10-06T16:11:18.353Z,62.88
2022-10-06T16:16:19.901Z,61.14
2022-10-06T16:21:21.524Z,61.26
2022-10-06T16:26:25.739Z,61.11
2022-10-06T16:31:27.705Z,62.63
2022-10-06T16:36:29.316Z,62.71
2022-10-06T16:41:30.887Z,62.83
2022-10-06T16:46:32.804Z,64.20
2022-10-06T16:51:39.066Z,64.13
2022-10-06T16:56:46.430Z,64.01
2022-10-06T17:01:49.238Z,64.15
2022-10-06T17:06:55.892Z,64.62
2022-10-06T17:11:59.235Z,65.82
2022-10-06T17:17:00.827Z,66.50
2022-10-06T17:22:02.472Z,67.35
2022-10-06T17:27:04.323Z,67.89
2022-10-06T17:32:05.969Z,69.61
2022-10-06T17:37:07.608Z,71.07
2022-10-06T17:42:13.666Z,71.20
2022-10-06T17:47:15.194Z,72.08
2022-10-06T17:52:20.667Z,73.06
2022-10-06T17:57:24.780Z,72.68
2022-10-06T18:02:26.668Z,73.16
2022-10-06T18:07:28.192Z,74.03
2022-10-06T18:12:36.076Z,75.80
2022-10-06T18:17:37.677Z,74.61
2022-10-06T18:22:39.527Z,74.82
2022-10-06T18:27:42.054Z,74.83
2022-10-06T18:38:05.394Z,76.78
2022-10-06T18:43:07.037Z,74.59
2022-10-06T18:48:27.878Z,75.60
2022-10-06T18:53:32.591Z,76.40
2022-10-06T18:58:41.021Z,75.71
2022-10-06T19:03:42.538Z,78.35
2022-10-06T19:08:44.265Z,77.66
2022-10-06T19:13:49.933Z,78.17
2022-10-06T19:18:51.575Z,79.40
2022-10-06T19:23:53.110Z,80.32
2022-10-06T19:28:54.682Z,79.81
2022-10-06T19:34:01.591Z,80.14
2022-10-06T19:39:05.334Z,80.19
2022-10-06T19:44:06.846Z,81.12
2022-10-06T19:49:10.452Z,82.55
2022-10-06T19:54:13.096Z,81.70
2022-10-06T19:59:20.499Z,82.38
2022-10-06T20:04:23.099Z,82.58
2022-10-06T20:09:24.901Z,82.25
2022-10-06T20:14:26.625Z,82.59
2022-10-06T20:19:28.218Z,82.95
2022-10-06T20:24:31.790Z,82.60
2022-10-06T20:29:34.625Z,83.02
2022-10-06T20:34:36.146Z,84.96
2022-10-06T20:39:56.347Z,84.03
2022-10-06T20:44:57.851Z,83.88
2022-10-06T20:49:59.331Z,85.13
2022-10-06T20:55:00.814Z,84.17
2022-10-06T21:00:02.420Z,85.67
2022-10-06T21:05:04.946Z,83.72
2022-10-06T21:10:07.622Z,83.86
2022-10-06T21:15:09.888Z,84.04
2022-10-06T21:20:11.423Z,82.76
2022-10-06T21:25:13.252Z,83.57
2022-10-06T21:30:14.918Z,83.97
2022-10-06T21:35:16.444Z,83.35
2022-10-06T21:40:17.992Z,83.90
2022-10-06T21:45:24.252Z,84.44
2022-10-06T21:50:26.366Z,84.41
2022-10-06T21:55:28.197Z,84.07
2022-10-06T22:00:29.746Z,83.05
2022-10-06T22:05:33.327Z,84.09
2022-10-06T22:10:34.989Z,84.51
2022-10-06T22:15:36.694Z,82.41
2022-10-06T22:20:38.241Z,83.09
2022-10-06T22:25:39.819Z,83.13
2022-10-06T22:30:41.355Z,82.36
2022-10-06T22:35:50.923Z,82.79
2022-10-06T22:40:52.680Z,83.49
2022-10-06T22:45:54.209Z,83.41
2022-10-06T22:50:55.910Z,82.81
2022-10-06T22:56:01.682Z,83.36
2022-10-06T23:01:11.291Z,84.15
2022-10-06T23:06:14.988Z,82.31
2022-10-06T23:11:18.638Z,84.41
2022-10-06T23:16:20.886Z,82.90
2022-10-06T23:21:24.300Z,83.22
2022-10-06T23:26:26.326Z,83.95
2022-10-06T23:31:28.670Z,84.04
2022-10-06T23:36:30.236Z,83.29
2022-10-06T23:41:31.971Z,82.48
2022-10-06T23:46:33.503Z,84.21
2022-10-06T23:51:35.050Z,83.08
2022-10-06T23:56:36.561Z,83.28
